Time;durP1;ratioP1;P1;durP2;ratioP2;P2;SDS_P1;SDS_P2;PMS_P1;PMS_P2;Temp;Humidity;BMP_temperature;BMP_pressure;BME280_temperature;BME280_humidity;BME280_pressure;Samples;Min_cycle;Max_cycle;Signal;HPM_P1;HPM_P2
2022/05/21 00:00:39;;;;;;;;;;;;;;;23.95;51.77;100617.81;5014714;28;4381;-63
2022/05/21 00:03:06;;;;;;;;;;;;;;;23.95;51.59;100620.72;5010975;28;4217;-63
2022/05/21 00:05:35;;;;;;;;;;;;;;;23.95;51.37;100620.72;5012258;28;5216;-63
2022/05/21 00:08:03;;;;;;;;;;;;;;;23.95;51.45;100612.75;5017766;28;5542;-62
2022/05/21 00:10:30;;;;;;;;;;;;;;;23.95;51.12;100609.13;5012057;28;5254;-63
2022/05/21 00:12:57;;;;;;;;;;;;;;;23.96;51.41;100622.16;5014007;28;4007;-62
2022/05/21 00:15:24;;;;;;;;;;;;;;;23.94;51.10;100613.47;5015877;28;5252;-62
2022/05/21 00:17:50;;;;;;;;;;;;;;;23.93;51.20;100614.84;5015786;28;4112;-62
2022/05/21 00:23:10;;;;;;;;;;;;;;;23.93;50.72;100641.63;5015228;28;4507;-63
2022/05/21 00:25:37;;;;;;;;;;;;;;;23.91;50.87;100630.00;5011885;28;4145;-63
2022/05/21 00:28:03;;;;;;;;;;;;;;;23.92;50.65;100639.44;5006987;28;4179;-63
2022/05/21 00:30:29;;;;;;;;;;;;;;;23.91;50.66;100646.63;5005916;28;4270;-62
2022/05/21 00:32:56;;;;;;;;;;;;;;;23.90;50.69;100631.41;5012799;28;4253;-62
2022/05/21 00:35:22;;;;;;;;;;;;;;;23.89;50.63;100653.09;5011313;28;4217;-62
2022/05/21 00:37:48;;;;;;;;;;;;;;;23.90;50.45;100662.50;5014732;28;5248;-63
2022/05/21 00:40:15;;;;;;;;;;;;;;;23.90;50.48;100662.50;5014124;28;4634;-62
2022/05/21 00:42:42;;;;;;;;;;;;;;;23.88;50.30;100662.44;5012458;28;4190;-62
2022/05/21 00:45:08;;;;;;;;;;;;;;;23.86;50.28;100676.84;5012351;28;4200;-62
2022/05/21 00:47:36;;;;;;;;;;;;;;;23.87;50.32;100684.09;5014990;28;4214;-63
2022/05/21 00:50:03;;;;;;;;;;;;;;;23.87;49.83;100692.75;5006969;28;4303;-62
2022/05/21 00:52:29;;;;;;;;;;;;;;;23.86;50.00;100691.28;5021019;28;4195;-62
2022/05/21 00:55:10;;;;;;;;;;;;;;;23.85;50.09;100698.50;5016425;28;5487;-63
2022/05/21 00:57:47;;;;;;;;;;;;;;;23.84;50.05;100706.41;5014437;28;5256;-62
2022/05/21 01:00:15;;;;;;;;;;;;;;;23.85;50.07;100716.59;5015497;28;5683;-62
2022/05/21 01:02:44;;;;;;;;;;;;;;;23.85;49.87;100727.41;5018120;28;5245;-63
2022/05/21 01:05:11;;;;;;;;;;;;;;;23.85;49.93;100727.41;5018426;28;5524;-62
2022/05/21 01:07:38;;;;;;;;;;;;;;;23.83;49.73;100737.50;5015995;28;5647;-63
2022/05/21 01:10:05;;;;;;;;;;;;;;;23.82;49.86;100724.47;5016858;28;4147;-62
2022/05/21 01:12:32;;;;;;;;;;;;;;;23.83;49.56;100737.50;5017140;28;4220;-62
2022/05/21 01:15:00;;;;;;;;;;;;;;;23.82;49.68;100741.81;5015547;28;4344;-62
2022/05/21 01:17:26;;;;;;;;;;;;;;;23.82;49.79;100743.94;5030933;28;4294;-62
2022/05/21 01:19:55;;;;;;;;;;;;;;;23.82;49.62;100756.28;5032689;28;4168;-62
2022/05/21 01:22:28;;;;;;;;;;;;;;;23.82;49.95;100764.94;5015754;28;4233;-61
2022/05/21 01:24:54;;;;;;;;;;;;;;;23.80;49.94;100770.66;5017690;28;4261;-62
2022/05/21 01:27:20;;;;;;;;;;;;;;;23.80;50.04;100764.13;5011158;28;4260;-61
2022/05/21 01:29:48;;;;;;;;;;;;;;;23.80;50.09;100767.00;5012638;28;4094;-62
2022/05/21 01:32:17;;;;;;;;;;;;;;;23.80;50.03;100762.00;5019773;28;4110;-62
2022/05/21 01:34:43;;;;;;;;;;;;;;;23.79;49.96;100772.06;5017496;28;4184;-62
2022/05/21 01:37:10;;;;;;;;;;;;;;;23.79;50.05;100766.28;5016688;28;4597;-62
2022/05/21 01:39:36;;;;;;;;;;;;;;;23.77;49.75;100774.88;5016817;28;4138;-62
2022/05/21 01:42:03;;;;;;;;;;;;;;;23.76;50.20;100776.31;5015226;28;4242;-62
2022/05/21 01:44:38;;;;;;;;;;;;;;;23.77;49.92;100777.78;5017105;28;4206;-62
2022/05/21 01:47:05;;;;;;;;;;;;;;;23.76;50.02;100790.78;5016747;28;4078;-62
2022/05/21 01:49:32;;;;;;;;;;;;;;;23.74;50.14;100793.59;5016307;28;4189;-62
2022/05/21 01:51:58;;;;;;;;;;;;;;;23.73;50.05;100792.09;5015910;28;5285;-62
2022/05/21 01:54:25;;;;;;;;;;;;;;;23.73;49.92;100797.88;5015847;28;4164;-62
2022/05/21 01:56:51;;;;;;;;;;;;;;;23.74;49.65;100796.50;5016100;28;4080;-62
2022/05/21 01:59:18;;;;;;;;;;;;;;;23.72;49.75;100802.19;5027749;28;4114;-62
2022/05/21 02:01:46;;;;;;;;;;;;;;;23.72;49.98;100807.97;5017233;28;4196;-62
2022/05/21 02:04:12;;;;;;;;;;;;;;;23.72;49.69;100810.84;5018195;28;5459;-62
2022/05/21 02:06:39;;;;;;;;;;;;;;;23.71;49.56;100818.06;5012721;28;4221;-62
2022/05/21 02:09:05;;;;;;;;;;;;;;;23.68;49.85;100819.38;5015944;28;4232;-62
2022/05/21 02:11:31;;;;;;;;;;;;;;;23.69;49.78;100812.22;5016356;28;4217;-62
2022/05/21 02:13:58;;;;;;;;;;;;;;;23.71;49.76;100818.06;5014327;28;4224;-62
2022/05/21 02:16:24;;;;;;;;;;;;;;;23.69;49.46;100817.25;5017024;28;5459;-62
2022/05/21 02:18:51;;;;;;;;;;;;;;;23.70;49.60;100824.50;5015885;28;4380;-62
2022/05/21 02:21:18;;;;;;;;;;;;;;;23.68;49.49;100842.50;5016885;28;4120;-62
2022/05/21 02:23:44;;;;;;;;;;;;;;;23.69;49.42;100835.34;5015672;28;4149;-62
2022/05/21 02:26:11;;;;;;;;;;;;;;;23.69;49.06;100835.34;5016352;28;4272;-62
2022/05/21 02:28:37;;;;;;;;;;;;;;;23.68;49.14;100848.28;5016228;28;4512;-62
2022/05/21 02:31:03;;;;;;;;;;;;;;;23.68;49.16;100848.28;5015505;28;5209;-62
2022/05/21 02:33:30;;;;;;;;;;;;;;;23.67;48.99;100846.81;5015282;28;4179;-62
2022/05/21 02:35:56;;;;;;;;;;;;;;;23.67;49.16;100852.63;5017076;28;4246;-63
2022/05/21 02:41:11;;;;;;;;;;;;;;;23.67;48.60;100869.22;5016769;28;4178;-63
2022/05/21 02:43:37;;;;;;;;;;;;;;;23.66;48.89;100865.56;5017136;28;5139;-63
2022/05/21 02:46:04;;;;;;;;;;;;;;;23.67;48.63;100869.97;5013651;28;5552;-62
2022/05/21 02:48:31;;;;;;;;;;;;;;;23.67;48.47;100858.41;5015050;28;5296;-63
2022/05/21 02:50:58;;;;;;;;;;;;;;;23.68;48.72;100877.22;5019273;28;5586;-63
2022/05/21 02:53:25;;;;;;;;;;;;;;;23.67;48.52;100881.53;5015584;28;4288;-62
2022/05/21 02:55:55;;;;;;;;;;;;;;;23.65;48.16;100869.88;5016283;28;4182;-63
2022/05/21 02:58:21;;;;;;;;;;;;;;;23.65;48.06;100884.34;5013385;28;4163;-62
2022/05/21 03:00:48;;;;;;;;;;;;;;;23.64;48.30;100894.44;5014789;28;4216;-62
2022/05/21 03:03:14;;;;;;;;;;;;;;;23.64;47.88;100891.56;5017398;28;4224;-63
2022/05/21 03:05:41;;;;;;;;;;;;;;;23.64;47.98;100903.13;5014978;28;5214;-63
2022/05/21 03:10:52;;;;;;;;;;;;;;;23.62;47.57;100917.50;5017059;28;4688;-63
2022/05/21 03:13:19;;;;;;;;;;;;;;;23.60;47.90;100918.16;5016384;28;4265;-63
2022/05/21 03:15:45;;;;;;;;;;;;;;;23.61;47.65;100921.78;5013727;28;4163;-63
2022/05/21 03:18:12;;;;;;;;;;;;;;;23.61;47.48;100918.88;5015641;28;4049;-63
2022/05/21 03:20:38;;;;;;;;;;;;;;;23.59;47.60;100922.47;5015364;28;4339;-63
2022/05/21 03:23:05;;;;;;;;;;;;;;;23.59;47.58;100931.13;5016080;28;5249;-63
2022/05/21 03:25:31;;;;;;;;;;;;;;;23.59;47.19;100939.06;5016721;28;4236;-63
2022/05/21 03:27:57;;;;;;;;;;;;;;;23.58;47.19;100931.81;5014990;28;4143;-63
2022/05/21 03:30:25;;;;;;;;;;;;;;;23.58;47.25;100941.22;5017377;28;4097;-63
2022/05/21 03:32:51;;;;;;;;;;;;;;;23.56;47.07;100944.03;5013383;28;4470;-63
2022/05/21 03:35:17;;;;;;;;;;;;;;;23.57;47.10;100953.44;5016566;28;4185;-63
2022/05/21 03:37:44;;;;;;;;;;;;;;;23.55;47.11;100957.00;5015412;28;4212;-63
2022/05/21 03:40:12;;;;;;;;;;;;;;;23.56;46.76;100960.63;5017801;28;4183;-63
2022/05/21 03:42:38;;;;;;;;;;;;;;;23.55;47.09;100974.34;5013327;28;5362;-63
2022/05/21 03:45:05;;;;;;;;;;;;;;;23.54;46.88;100986.56;5017457;28;5460;-63
2022/05/21 03:47:32;;;;;;;;;;;;;;;23.55;46.97;100976.50;5014891;28;4241;-63
2022/05/21 03:49:58;;;;;;;;;;;;;;;23.54;46.82;100983.69;5017296;28;4161;-63
2022/05/21 03:52:24;;;;;;;;;;;;;;;23.53;46.73;100985.09;5013006;28;4190;-63
2022/05/21 03:54:51;;;;;;;;;;;;;;;23.52;46.85;100987.22;5013745;28;4184;-63
2022/05/21 03:57:17;;;;;;;;;;;;;;;23.52;46.80;100989.38;5014994;28;4256;-63
2022/05/21 03:59:43;;;;;;;;;;;;;;;23.53;46.78;101006.06;5013419;28;4112;-62
2022/05/21 04:02:12;;;;;;;;;;;;;;;23.52;46.61;101009.63;5013142;28;4059;-62
2022/05/21 04:04:39;;;;;;;;;;;;;;;23.53;46.62;101011.13;5016129;28;4304;-63
2022/05/21 04:07:05;;;;;;;;;;;;;;;23.52;46.86;101018.28;5013957;28;4204;-63
2022/05/21 04:09:32;;;;;;;;;;;;;;;23.52;46.78;101021.19;5014957;28;4249;-63
2022/05/21 04:11:58;;;;;;;;;;;;;;;23.50;46.59;101029.78;5014310;28;5184;-62
2022/05/21 04:14:27;;;;;;;;;;;;;;;23.49;46.51;101039.88;5012617;28;5223;-63
2022/05/21 04:16:57;;;;;;;;;;;;;;;23.49;46.79;101029.03;5015681;28;4432;-62
2022/05/21 04:19:25;;;;;;;;;;;;;;;23.49;46.41;101048.53;5017265;28;5345;-63
2022/05/21 04:21:52;;;;;;;;;;;;;;;23.46;46.63;101053.50;5014053;28;4031;-63
2022/05/21 04:24:18;;;;;;;;;;;;;;;23.45;46.70;101042.59;5016219;28;4221;-63
2022/05/21 04:26:44;;;;;;;;;;;;;;;23.41;46.14;101058.41;5012070;28;5431;-63
2022/05/21 04:29:11;;;;;;;;;;;;;;;23.42;46.37;101064.91;5013548;28;5646;-62
2022/05/21 04:31:37;;;;;;;;;;;;;;;23.43;46.26;101077.94;5016277;28;4204;-63
2022/05/21 04:34:04;;;;;;;;;;;;;;;23.41;46.55;101069.97;5015182;28;4081;-63
2022/05/21 04:36:31;;;;;;;;;;;;;;;23.41;46.33;101080.78;5011367;28;5298;-63
2022/05/21 04:38:58;;;;;;;;;;;;;;;23.42;46.23;101079.38;5015057;28;5286;-63
2022/05/21 04:41:25;;;;;;;;;;;;;;;23.40;46.18;101085.81;5015903;28;4102;-63
2022/05/21 04:43:52;;;;;;;;;;;;;;;23.40;45.75;101094.47;5012141;28;4324;-63
2022/05/21 04:46:18;;;;;;;;;;;;;;;23.39;45.62;101101.66;5015032;28;4225;-63
2022/05/21 04:48:45;;;;;;;;;;;;;;;23.40;45.60;101114.69;5014875;28;4384;-63
2022/05/21 04:51:28;;;;;;;;;;;;;;;23.42;45.75;101114.78;5013946;28;4300;-63
2022/05/21 04:53:55;;;;;;;;;;;;;;;23.41;45.54;101116.19;5011910;28;4034;-63
2022/05/21 04:56:22;;;;;;;;;;;;;;;23.40;45.63;101120.47;5015907;28;5425;-63
2022/05/21 04:59:04;;;;;;;;;;;;;;;23.37;45.65;101113.16;5016360;28;4160;-63
2022/05/21 05:01:30;;;;;;;;;;;;;;;23.38;45.71;101117.50;5014386;28;5270;-63
2022/05/21 05:03:57;;;;;;;;;;;;;;;23.37;45.36;101110.25;5019094;28;4857;-63
2022/05/21 05:06:23;;;;;;;;;;;;;;;23.36;45.38;101117.44;5015367;28;5647;-63
2022/05/21 05:08:50;;;;;;;;;;;;;;;23.37;45.28;101115.31;5013695;28;4216;-62
2022/05/21 05:11:16;;;;;;;;;;;;;;;23.39;45.35;101127.69;5013270;28;5228;-63
2022/05/21 05:13:42;;;;;;;;;;;;;;;23.38;45.10;101129.06;5016258;28;4551;-63
2022/05/21 05:16:09;;;;;;;;;;;;;;;23.37;45.12;101121.09;5013501;28;4274;-63
2022/05/21 05:18:35;;;;;;;;;;;;;;;23.37;44.98;101138.41;5012935;28;4271;-63
2022/05/21 05:21:02;;;;;;;;;;;;;;;23.20;45.24;101134.16;5014840;28;5871;-63
2022/05/21 05:23:28;;;;;;;;;;;;;;;23.07;45.35;101132.19;5015613;28;4554;-63
2022/05/21 05:25:54;;;;;;;;;;;;;;;22.89;45.13;101123.53;5016472;28;4245;-63
2022/05/21 05:28:21;;;;;;;;;;;;;;;22.87;45.13;101129.22;5012701;28;5174;-62
2022/05/21 05:30:48;;;;;;;;;;;;;;;22.82;45.28;101127.56;5015913;28;4583;-63
2022/05/21 05:33:17;;;;;;;;;;;;;;;22.80;44.96;101131.84;5016224;28;5256;-63
2022/05/21 05:35:43;;;;;;;;;;;;;;;22.83;44.68;101146.38;5018653;28;4156;-63
2022/05/21 05:38:10;;;;;;;;;;;;;;;22.65;44.43;101143.47;5018996;28;5399;-63
2022/05/21 05:40:37;;;;;;;;;;;;;;;22.64;43.86;101136.22;5019075;28;5312;-62
2022/05/21 05:43:03;;;;;;;;;;;;;;;22.65;43.87;101143.47;5017320;28;4155;-63
2022/05/21 05:45:30;;;;;;;;;;;;;;;22.71;43.99;101140.84;5017489;28;4257;-63
2022/05/21 05:47:56;;;;;;;;;;;;;;;22.59;43.26;101130.28;5013231;28;4154;-62
2022/05/21 05:50:23;;;;;;;;;;;;;;;22.62;43.72;101147.69;5018238;28;4197;-62
2022/05/21 05:52:49;;;;;;;;;;;;;;;22.68;43.54;101145.06;5017217;28;4227;-62
2022/05/21 05:55:15;;;;;;;;;;;;;;;22.64;43.34;101136.22;5016693;28;4079;-63
2022/05/21 05:57:42;;;;;;;;;;;;;;;22.80;43.93;101143.41;5014690;28;3994;-62
2022/05/21 06:00:08;;;;;;;;;;;;;;;22.70;43.53;101145.88;5019984;28;5230;-63
2022/05/21 06:05:23;;;;;;;;;;;;;;;22.82;43.19;101156.44;5017754;28;5272;-64
2022/05/21 06:07:54;;;;;;;;;;;;;;;22.88;43.09;101154.53;5014131;28;4051;-64
2022/05/21 06:10:22;;;;;;;;;;;;;;;22.90;43.03;101162.53;5015399;28;4235;-65
2022/05/21 06:12:48;;;;;;;;;;;;;;;22.85;43.13;101167.41;5014375;28;4263;-64
2022/05/21 06:15:15;;;;;;;;;;;;;;;22.89;43.01;101161.06;5018984;28;5246;-64
2022/05/21 06:17:41;;;;;;;;;;;;;;;22.88;43.01;101166.06;5015930;28;4228;-63
2022/05/21 06:20:08;;;;;;;;;;;;;;;22.89;42.59;101167.56;5031958;28;4201;-63
2022/05/21 06:22:35;;;;;;;;;;;;;;;22.91;42.72;101175.59;5013232;28;5764;-71
2022/05/21 06:25:02;;;;;;;;;;;;;;;22.89;42.81;101178.38;5016097;28;4079;-69
2022/05/21 06:27:32;;;;;;;;;;;;;;;22.86;42.94;101176.81;5015062;28;4518;-75
2022/05/21 06:29:59;;;;;;;;;;;;;;;22.88;42.64;101171.84;5020522;28;4072;-67
2022/05/21 06:32:25;;;;;;;;;;;;;;;22.91;43.01;101187.88;5011607;28;5653;-66
2022/05/21 06:35:01;;;;;;;;;;;;;;;22.84;42.54;101182.50;5016273;28;4220;-71
2022/05/21 06:37:32;;;;;;;;;;;;;;;22.83;42.51;101184.63;5007375;28;4136;-71
2022/05/21 06:39:58;;;;;;;;;;;;;;;22.86;42.50;101194.88;5015561;28;4690;-71
2022/05/21 06:42:24;;;;;;;;;;;;;;;22.88;42.53;101186.28;5018326;28;4891;-71
2022/05/21 06:44:51;;;;;;;;;;;;;;;22.90;42.96;101180.59;5016668;28;5692;-71
2022/05/21 06:47:17;;;;;;;;;;;;;;;22.93;43.07;101184.31;5018779;28;4066;-71
2022/05/21 06:49:43;;;;;;;;;;;;;;;22.94;43.09;101177.88;5017160;28;5633;-71
2022/05/21 06:52:10;;;;;;;;;;;;;;;22.95;43.45;101179.38;5020463;28;5298;-71
2022/05/21 06:54:36;;;;;;;;;;;;;;;22.96;43.59;101185.91;5016754;28;4542;-71
2022/05/21 06:57:08;;;;;;;;;;;;;;;22.95;43.68;101173.59;5019320;28;5626;-71
2022/05/21 06:59:34;;;;;;;;;;;;;;;22.96;43.87;101177.22;5017024;28;5560;-71
2022/05/21 07:02:01;;;;;;;;;;;;;;;22.97;43.55;101167.16;5018855;28;4201;-71
2022/05/21 07:09:57;;;;;;;;;;;;;;;22.99;44.04;101176.66;5016650;28;5569;-71
2022/05/21 07:12:25;;;;;;;;;;;;;;;22.99;44.21;101176.66;5015208;28;5528;-71
2022/05/21 07:14:52;;;;;;;;;;;;;;;22.99;44.33;101188.22;5019766;28;5505;-71
2022/05/21 07:17:18;;;;;;;;;;;;;;;23.00;44.16;101183.94;5019639;28;5250;-71
2022/05/21 07:19:45;;;;;;;;;;;;;;;23.02;44.30;101177.50;5016160;28;5482;-71
2022/05/21 07:22:11;;;;;;;;;;;;;;;23.02;44.48;101179.63;5016947;28;4165;-71
2022/05/21 07:24:40;;;;;;;;;;;;;;;23.02;44.20;101185.41;5014099;28;5075;-71
2022/05/21 07:27:07;;;;;;;;;;;;;;;23.02;44.54;101174.63;5019637;28;5645;-71
2022/05/21 07:29:36;;;;;;;;;;;;;;;23.03;44.48;101175.34;5018369;28;5632;-71
2022/05/21 07:32:03;;;;;;;;;;;;;;;23.05;44.43;101169.66;5017338;28;5325;-71
2022/05/21 07:34:30;;;;;;;;;;;;;;;23.05;44.92;101170.41;5016393;28;5536;-71
2022/05/21 07:36:56;;;;;;;;;;;;;;;23.06;44.63;101168.25;5016224;28;4373;-71
2022/05/21 07:39:22;;;;;;;;;;;;;;;23.06;45.01;101160.31;5016448;28;5430;-71
2022/05/21 07:41:49;;;;;;;;;;;;;;;23.07;45.01;101158.19;5018919;28;5778;-71
2022/05/21 07:44:16;;;;;;;;;;;;;;;23.08;44.94;101162.56;5016262;28;4206;-66
2022/05/21 07:46:42;;;;;;;;;;;;;;;23.06;44.74;101165.38;5015419;28;4240;-76
2022/05/21 07:49:09;;;;;;;;;;;;;;;23.04;44.55;101165.28;5010406;28;4166;-69
2022/05/21 07:51:36;;;;;;;;;;;;;;;23.04;44.81;101160.25;5011904;28;4099;-67
2022/05/21 07:54:02;;;;;;;;;;;;;;;23.03;44.72;101158.78;5012163;28;6078;-74
2022/05/21 07:56:30;;;;;;;;;;;;;;;23.00;44.62;101142.78;5016071;28;4237;-73
2022/05/21 07:58:57;;;;;;;;;;;;;;;23.03;44.68;101147.22;5016575;28;4261;-74
2022/05/21 08:01:23;;;;;;;;;;;;;;;23.07;44.66;101146.66;5011747;28;5341;-72
2022/05/21 08:03:50;;;;;;;;;;;;;;;23.07;45.01;101140.88;5016305;28;4161;-72
2022/05/21 08:06:16;;;;;;;;;;;;;;;23.10;45.00;101151.09;5015689;28;4458;-68
2022/05/21 08:08:43;;;;;;;;;;;;;;;23.10;44.98;101139.53;5016796;28;4175;-71
2022/05/21 08:11:09;;;;;;;;;;;;;;;23.11;45.28;101138.13;5015163;28;4233;-72
2022/05/21 08:13:35;;;;;;;;;;;;;;;23.13;45.42;101138.19;5011980;28;4242;-70
2022/05/21 08:16:02;;;;;;;;;;;;;;;23.14;45.49;101142.59;5018683;28;4247;-72
2022/05/21 08:18:28;;;;;;;;;;;;;;;23.12;45.51;101143.25;5016018;28;4109;-71
2022/05/21 08:20:55;;;;;;;;;;;;;;;23.14;45.57;101136.81;5017013;28;4242;-71
2022/05/21 08:28:51;;;;;;;;;;;;;;;23.17;46.02;101144.88;5015421;28;4347;-72
2022/05/21 08:31:20;;;;;;;;;;;;;;;23.17;46.22;101139.09;5015355;28;5318;-70
2022/05/21 08:33:47;;;;;;;;;;;;;;;23.18;46.01;101157.94;5015796;28;4328;-71
2022/05/21 08:36:13;;;;;;;;;;;;;;;23.18;46.06;101157.19;5017054;28;4372;-71
2022/05/21 08:38:44;;;;;;;;;;;;;;;23.18;46.28;101157.19;5014606;28;5239;-72
2022/05/21 08:41:11;;;;;;;;;;;;;;;23.19;46.28;101158.69;5012781;28;4225;-70
2022/05/21 08:43:56;;;;;;;;;;;;;;;23.18;46.38;101160.81;5011776;28;5491;-70
2022/05/21 08:46:36;;;;;;;;;;;;;;;23.19;46.73;101176.00;5012891;28;4444;-70
2022/05/21 08:49:14;;;;;;;;;;;;;;;23.19;46.82;101181.78;5015336;28;5211;-70
2022/05/21 08:51:43;;;;;;;;;;;;;;;23.19;46.86;101176.75;5012169;28;4189;-70
2022/05/21 08:54:16;;;;;;;;;;;;;;;23.20;46.69;101177.47;5016971;28;5344;-69
2022/05/21 08:56:43;;;;;;;;;;;;;;;23.20;46.99;101195.56;5011502;28;4148;-69
2022/05/21 08:59:09;;;;;;;;;;;;;;;23.19;47.06;101194.06;5020544;28;4081;-70
2022/05/21 09:01:36;;;;;;;;;;;;;;;23.21;46.98;101190.53;5015523;28;5226;-71
2022/05/21 09:04:04;;;;;;;;;;;;;;;23.23;46.91;101195.63;5014184;28;5533;-71
2022/05/21 09:06:31;;;;;;;;;;;;;;;23.21;47.19;101197.06;5016495;28;4281;-69
2022/05/21 09:09:04;;;;;;;;;;;;;;;23.21;47.26;101196.31;5017567;28;5541;-72
2022/05/21 09:11:38;;;;;;;;;;;;;;;23.21;47.14;101202.09;5021181;28;5195;-71
2022/05/21 09:14:21;;;;;;;;;;;;;;;23.21;47.28;101193.44;5021901;28;4302;-71
2022/05/21 09:16:56;;;;;;;;;;;;;;;23.21;47.11;101184.75;5021103;28;4270;-72
2022/05/21 09:19:28;;;;;;;;;;;;;;;23.22;47.22;101186.22;5019428;28;4301;-72
2022/05/21 09:21:58;;;;;;;;;;;;;;;23.22;47.31;101183.34;5016769;28;4185;-68
2022/05/21 09:24:43;;;;;;;;;;;;;;;23.20;47.29;101183.25;5017130;28;4169;-71
2022/05/21 09:27:23;;;;;;;;;;;;;;;23.20;47.55;101177.47;5019332;28;5246;-72
2022/05/21 09:29:50;;;;;;;;;;;;;;;23.21;47.72;101178.97;5013194;28;4223;-66
2022/05/21 09:32:29;;;;;;;;;;;;;;;23.22;47.89;101168.91;5019067;28;4101;-66
2022/05/21 09:35:01;;;;;;;;;;;;;;;23.23;47.52;101181.94;5013686;28;4081;-66
2022/05/21 09:37:31;;;;;;;;;;;;;;;23.19;47.59;101181.78;5035142;28;4182;-73
2022/05/21 09:40:22;;;;;;;;;;;;;;;23.16;47.36;101177.34;5013453;28;4032;-74
2022/05/21 09:45:38;;;;;;;;;;;;;;;23.17;47.29;101179.56;5016070;28;5443;-74
2022/05/21 09:48:04;;;;;;;;;;;;;;;23.19;47.33;101170.22;5019479;28;5700;-74
2022/05/21 09:50:31;;;;;;;;;;;;;;;23.20;47.71;101183.25;5018925;28;6525;-73
2022/05/21 09:52:58;;;;;;;;;;;;;;;23.19;47.50;101176.00;5019236;28;4152;-73
2022/05/21 09:55:25;;;;;;;;;;;;;;;23.20;47.65;101165.91;5020026;28;5584;-74
2022/05/21 09:57:55;;;;;;;;;;;;;;;23.21;47.62;101173.19;5018950;28;5756;-73
2022/05/21 10:00:22;;;;;;;;;;;;;;;23.22;47.65;101174.69;5019628;28;4581;-73
2022/05/21 10:02:50;;;;;;;;;;;;;;;23.22;47.27;101174.69;5021704;28;5579;-73
2022/05/21 10:05:19;;;;;;;;;;;;;;;23.22;47.45;101166.00;5024748;28;4167;-73
2022/05/21 10:13:22;;;;;;;;;;;;;;;23.22;47.60;101168.91;5017838;28;4240;-73
2022/05/21 10:15:55;;;;;;;;;;;;;;;23.23;47.44;101176.19;5019481;28;4146;-73
2022/05/21 10:18:30;;;;;;;;;;;;;;;23.21;47.29;101173.94;5017813;28;5319;-73
2022/05/21 10:20:58;;;;;;;;;;;;;;;23.23;47.41;101160.97;5018319;28;3995;-74
2022/05/21 10:23:30;;;;;;;;;;;;;;;23.22;47.27;101168.91;5017745;28;5639;-73
2022/05/21 10:26:01;;;;;;;;;;;;;;;23.23;47.51;101164.63;5019041;28;4108;-73
2022/05/21 10:28:46;;;;;;;;;;;;;;;23.23;47.56;101147.28;5018096;28;5403;-73
2022/05/21 10:31:13;;;;;;;;;;;;;;;23.24;47.54;101156.69;5018653;28;4757;-73
2022/05/21 10:33:55;;;;;;;;;;;;;;;23.24;47.56;101150.91;5016641;28;4519;-73
2022/05/21 10:36:24;;;;;;;;;;;;;;;23.24;47.37;101142.97;5019692;28;4589;-73
2022/05/21 10:39:12;;;;;;;;;;;;;;;23.25;47.31;101143.72;5018722;28;4525;-73
2022/05/21 10:41:49;;;;;;;;;;;;;;;23.25;47.41;101137.94;5014766;28;4563;-74
2022/05/21 10:44:22;;;;;;;;;;;;;;;23.24;47.40;101137.19;5019613;28;4107;-74
2022/05/21 10:46:58;;;;;;;;;;;;;;;23.24;47.68;101142.97;5021249;28;4045;-75
2022/05/21 10:49:48;;;;;;;;;;;;;;;23.24;47.62;101142.97;5017142;28;5389;-73
2022/05/21 10:52:37;;;;;;;;;;;;;;;23.25;47.31;101143.72;5019084;28;5710;-74
2022/05/21 10:55:10;;;;;;;;;;;;;;;23.24;47.60;101151.66;5019444;28;4177;-74
2022/05/21 10:57:51;;;;;;;;;;;;;;;23.25;47.71;101137.94;5017392;28;6334;-74
2022/05/21 11:00:25;;;;;;;;;;;;;;;23.26;47.40;101133.66;5019193;28;5492;-75
2022/05/21 11:02:56;;;;;;;;;;;;;;;23.26;47.37;101133.66;5016697;28;5084;-74
2022/05/21 11:05:23;;;;;;;;;;;;;;;23.25;47.70;101124.25;5017612;28;5508;-74
2022/05/21 11:07:55;;;;;;;;;;;;;;;23.25;47.44;101121.34;5012102;28;5353;-74
2022/05/21 11:10:24;;;;;;;;;;;;;;;23.24;47.86;101128.53;5004775;28;4459;-75
2022/05/21 11:12:53;;;;;;;;;;;;;;;23.26;47.86;101131.50;5015521;28;4166;-71
2022/05/21 11:15:25;;;;;;;;;;;;;;;23.27;47.55;101123.56;5016248;28;4013;-71
2022/05/21 11:17:52;;;;;;;;;;;;;;;23.29;47.59;101133.06;5017928;28;5768;-66
2022/05/21 11:20:20;;;;;;;;;;;;;;;23.32;47.51;101128.84;5032942;28;4356;-66
2022/05/21 11:22:47;;;;;;;;;;;;;;;23.34;47.62;101120.28;5015434;28;4180;-68
2022/05/21 11:25:17;;;;;;;;;;;;;;;23.34;47.70;101133.94;5013849;28;4208;-76
2022/05/21 11:28:03;;;;;;;;;;;;;;;23.34;47.55;101131.81;5017533;28;4178;-74
2022/05/21 11:30:29;;;;;;;;;;;;;;;23.34;47.72;101123.16;5018654;28;4055;-76
2022/05/21 11:38:31;;;;;;;;;;;;;;;23.34;47.43;101123.16;5017382;28;5700;-76
2022/05/21 11:46:46;;;;;;;;;;;;;;;23.35;47.35;101124.63;5027364;28;4213;-76
2022/05/21 11:49:31;;;;;;;;;;;;;;;23.36;47.38;101137.66;5018884;28;4170;-75
2022/05/21 11:51:58;;;;;;;;;;;;;;;23.37;47.53;101121.81;5018566;28;4175;-76
2022/05/21 11:54:43;;;;;;;;;;;;;;;23.37;47.25;101130.50;5017757;28;4165;-75
2022/05/21 11:57:09;;;;;;;;;;;;;;;23.38;47.29;101134.84;5021193;28;4213;-76
2022/05/21 11:59:51;;;;;;;;;;;;;;;23.37;47.51;101147.09;5018725;28;4310;-76
2022/05/21 12:02:24;;;;;;;;;;;;;;;23.36;47.20;101131.88;5018308;28;4070;-76
2022/05/21 12:04:51;;;;;;;;;;;;;;;23.38;47.56;101134.13;5016220;28;4399;-73
2022/05/21 12:07:37;;;;;;;;;;;;;;;23.36;47.16;101137.66;5016909;28;5358;-71
2022/05/21 12:10:06;;;;;;;;;;;;;;;23.34;47.30;101146.28;5017449;28;5581;-73
2022/05/21 12:12:34;;;;;;;;;;;;;;;23.34;47.05;101134.72;5023564;28;4245;-71
2022/05/21 12:15:13;;;;;;;;;;;;;;;23.34;47.38;101136.84;5017003;28;4960;-71
2022/05/21 12:17:44;;;;;;;;;;;;;;;23.33;47.10;101132.47;5017810;28;4167;-71
2022/05/21 12:20:11;;;;;;;;;;;;;;;23.32;47.25;101137.53;5012092;28;4247;-70
2022/05/21 12:22:39;;;;;;;;;;;;;;;23.32;47.01;101145.44;5016249;28;4324;-73
2022/05/21 12:25:07;;;;;;;;;;;;;;;23.30;47.22;101140.34;5016600;28;4152;-73
2022/05/21 12:27:33;;;;;;;;;;;;;;;23.31;47.16;101141.06;5020701;28;4415;-71
2022/05/21 12:30:01;;;;;;;;;;;;;;;23.28;47.54;101148.91;5031103;28;4240;-75
2022/05/21 12:32:27;;;;;;;;;;;;;;;23.29;47.47;101132.31;5017426;28;4210;-74
2022/05/21 12:35:14;;;;;;;;;;;;;;;23.29;47.26;101133.06;5004379;28;4114;-75
2022/05/21 12:37:51;;;;;;;;;;;;;;;23.27;47.29;101124.31;5029738;28;4583;-74
2022/05/21 12:40:34;;;;;;;;;;;;;;;23.27;47.68;101129.34;4985791;28;4353;-74
2022/05/21 12:43:07;;;;;;;;;;;;;;;23.26;47.34;101134.38;5022401;28;4407;-74
2022/05/21 12:45:35;;;;;;;;;;;;;;;23.27;47.32;101132.97;5020349;28;4879;-74
2022/05/21 12:48:13;;;;;;;;;;;;;;;23.27;47.40;101127.19;5022873;28;5182;-75
2022/05/21 12:51:00;;;;;;;;;;;;;;;23.26;47.46;101117.06;5020391;28;4150;-73
2022/05/21 12:53:26;;;;;;;;;;;;;;;23.26;47.60;101122.84;5019852;28;4526;-65
2022/05/21 12:55:56;;;;;;;;;;;;;;;23.25;46.66;101126.38;5021293;28;4146;-71
2022/05/21 12:58:23;;;;;;;;;;;;;;;23.24;46.42;101125.63;5016074;28;5254;-69
2022/05/21 13:00:51;;;;;;;;;;;;;;;23.23;46.14;101124.16;5021495;28;5253;-72
2022/05/21 13:03:18;;;;;;;;;;;;;;;23.17;45.95;101121.78;5017221;28;5070;-70
2022/05/21 13:05:49;;;;;;;;;;;;;;;23.16;44.75;101128.22;5015218;28;4165;-72
2022/05/21 13:08:16;;;;;;;;;;;;;;;23.18;44.48;101125.41;5017977;28;4248;-74
2022/05/21 13:10:51;;;;;;;;;;;;;;;23.20;45.39;101132.03;5013913;28;4178;-62
2022/05/21 13:13:19;;;;;;;;;;;;;;;23.41;46.41;101124.13;5017133;28;5403;-69
2022/05/21 13:15:51;;;;;;;;;;;;;;;23.46;45.82;101139.47;5016053;28;4229;-76
2022/05/21 13:18:21;;;;;;;;;;;;;;;23.52;46.14;101154.88;5012870;28;5320;-73
2022/05/21 13:20:48;;;;;;;;;;;;;;;23.61;46.48;101150.16;5013622;28;5594;-68
2022/05/21 13:23:34;;;;;;;;;;;;;;;23.65;45.80;101144.53;5010867;28;4256;-73
2022/05/21 13:26:00;;;;;;;;;;;;;;;23.69;45.81;101146.84;5009883;28;4089;-76
2022/05/21 13:28:26;;;;;;;;;;;;;;;23.64;45.62;101140.16;5002840;28;4326;-77
2022/05/21 13:30:53;;;;;;;;;;;;;;;23.70;45.57;101149.03;5007137;28;4092;-74
2022/05/21 13:33:27;;;;;;;;;;;;;;;23.69;45.37;101138.91;5008460;28;4338;-77
2022/05/21 13:35:58;;;;;;;;;;;;;;;23.72;44.90;101134.66;5015113;28;4174;-78
2022/05/21 13:38:29;;;;;;;;;;;;;;;23.63;44.49;101135.78;5003332;28;4205;-76